sensor_id;sensor_type;location;lat;lon;timestamp;temperature;humidity
52127;DHT22;38120;53.176;6.614;2024-03-17T00:01:17;4.50;99.90
52127;DHT22;38120;53.176;6.614;2024-03-17T00:03:42;4.60;99.90
52127;DHT22;38120;53.176;6.614;2024-03-17T00:06:18;4.60;99.90
52127;DHT22;38120;53.176;6.614;2024-03-17T00:08:44;4.60;99.90
52127;DHT22;38120;53.176;6.614;2024-03-17T00:11:10;4.60;99.90
52127;DHT22;38120;53.176;6.614;2024-03-17T00:13:38;4.50;99.90
52127;DHT22;38120;53.176;6.614;2024-03-17T00:16:04;4.50;99.90
52127;DHT22;38120;53.176;6.614;2024-03-17T00:18:30;4.60;99.90
52127;DHT22;38120;53.176;6.614;2024-03-17T00:20:58;4.50;99.90
52127;DHT22;38120;53.176;6.614;2024-03-17T00:23:25;4.40;99.90
52127;DHT22;38120;53.176;6.614;2024-03-17T00:25:50;4.40;99.90
52127;DHT22;38120;53.176;6.614;2024-03-17T00:28:18;4.50;99.90
52127;DHT22;38120;53.176;6.614;2024-03-17T00:30:46;4.40;99.90
52127;DHT22;38120;53.176;6.614;2024-03-17T00:33:11;4.30;99.90
52127;DHT22;38120;53.176;6.614;2024-03-17T00:35:50;4.20;99.90
52127;DHT22;38120;53.176;6.614;2024-03-17T00:38:15;4.10;99.90
52127;DHT22;38120;53.176;6.614;2024-03-17T00:40:41;4.10;99.90
52127;DHT22;38120;53.176;6.614;2024-03-17T00:43:07;4.00;99.90
52127;DHT22;38120;53.176;6.614;2024-03-17T00:45:33;4.00;99.90
52127;DHT22;38120;53.176;6.614;2024-03-17T00:47:59;4.00;99.90
52127;DHT22;38120;53.176;6.614;2024-03-17T00:50:25;3.90;99.90
52127;DHT22;38120;53.176;6.614;2024-03-17T00:52:50;3.80;99.90
52127;DHT22;38120;53.176;6.614;2024-03-17T00:55:16;3.80;99.90
52127;DHT22;38120;53.176;6.614;2024-03-17T00:57:42;3.70;99.90
52127;DHT22;38120;53.176;6.614;2024-03-17T01:00:08;3.70;99.90
52127;DHT22;38120;53.176;6.614;2024-03-17T01:02:43;3.60;99.90
52127;DHT22;38120;53.176;6.614;2024-03-17T01:05:08;3.60;99.90
52127;DHT22;38120;53.176;6.614;2024-03-17T01:07:34;3.60;99.90
52127;DHT22;38120;53.176;6.614;2024-03-17T01:10:02;3.50;99.90
52127;DHT22;38120;53.176;6.614;2024-03-17T01:12:27;3.50;99.90
52127;DHT22;38120;53.176;6.614;2024-03-17T01:14:53;3.80;99.90
52127;DHT22;38120;53.176;6.614;2024-03-17T01:17:19;3.50;99.90
52127;DHT22;38120;53.176;6.614;2024-03-17T01:19:45;3.40;99.90
52127;DHT22;38120;53.176;6.614;2024-03-17T01:22:11;3.40;99.90
52127;DHT22;38120;53.176;6.614;2024-03-17T01:24:36;3.40;99.90
52127;DHT22;38120;53.176;6.614;2024-03-17T01:27:05;3.30;99.90
52127;DHT22;38120;53.176;6.614;2024-03-17T01:29:31;3.50;99.90
52127;DHT22;38120;53.176;6.614;2024-03-17T01:31:57;3.30;99.90
52127;DHT22;38120;53.176;6.614;2024-03-17T01:34:23;3.30;99.90
52127;DHT22;38120;53.176;6.614;2024-03-17T01:36:48;3.30;99.90
52127;DHT22;38120;53.176;6.614;2024-03-17T01:39:14;3.20;99.90
52127;DHT22;38120;53.176;6.614;2024-03-17T01:41:41;3.20;99.90
52127;DHT22;38120;53.176;6.614;2024-03-17T01:44:07;3.20;99.90
52127;DHT22;38120;53.176;6.614;2024-03-17T01:46:33;3.20;99.90
52127;DHT22;38120;53.176;6.614;2024-03-17T01:49:00;3.10;99.90
52127;DHT22;38120;53.176;6.614;2024-03-17T01:51:26;3.10;99.90
52127;DHT22;38120;53.176;6.614;2024-03-17T01:53:52;3.10;99.90
52127;DHT22;38120;53.176;6.614;2024-03-17T01:56:19;2.90;99.90
52127;DHT22;38120;53.176;6.614;2024-03-17T01:58:45;4.00;99.90
52127;DHT22;38120;53.176;6.614;2024-03-17T02:01:11;3.00;99.90
52127;DHT22;38120;53.176;6.614;2024-03-17T02:03:41;3.00;99.90
52127;DHT22;38120;53.176;6.614;2024-03-17T02:06:08;3.20;99.90
52127;DHT22;38120;53.176;6.614;2024-03-17T02:08:51;2.90;99.90
52127;DHT22;38120;53.176;6.614;2024-03-17T02:11:28;2.90;99.90
52127;DHT22;38120;53.176;6.614;2024-03-17T02:13:55;2.90;99.90
52127;DHT22;38120;53.176;6.614;2024-03-17T02:16:21;2.80;99.90
52127;DHT22;38120;53.176;6.614;2024-03-17T02:18:47;3.90;99.90
52127;DHT22;38120;53.176;6.614;2024-03-17T02:21:14;2.70;99.90
52127;DHT22;38120;53.176;6.614;2024-03-17T02:23:42;2.70;99.90
52127;DHT22;38120;53.176;6.614;2024-03-17T02:26:07;4.10;99.90
52127;DHT22;38120;53.176;6.614;2024-03-17T02:28:41;2.60;99.90
52127;DHT22;38120;53.176;6.614;2024-03-17T02:31:08;2.70;99.90
52127;DHT22;38120;53.176;6.614;2024-03-17T02:33:35;2.60;99.90
52127;DHT22;38120;53.176;6.614;2024-03-17T02:36:01;2.60;99.90
52127;DHT22;38120;53.176;6.614;2024-03-17T02:38:29;2.50;99.90
52127;DHT22;38120;53.176;6.614;2024-03-17T02:41:13;2.50;99.90
52127;DHT22;38120;53.176;6.614;2024-03-17T02:43:39;2.60;99.90
52127;DHT22;38120;53.176;6.614;2024-03-17T02:46:05;2.50;99.90
52127;DHT22;38120;53.176;6.614;2024-03-17T02:48:31;2.50;99.90
52127;DHT22;38120;53.176;6.614;2024-03-17T02:50:57;2.50;99.90
52127;DHT22;38120;53.176;6.614;2024-03-17T02:53:22;2.50;99.90
52127;DHT22;38120;53.176;6.614;2024-03-17T02:55:48;3.50;99.90
52127;DHT22;38120;53.176;6.614;2024-03-17T02:58:14;2.50;99.90
52127;DHT22;38120;53.176;6.614;2024-03-17T03:00:39;2.50;99.90
52127;DHT22;38120;53.176;6.614;2024-03-17T03:03:06;2.60;99.90
52127;DHT22;38120;53.176;6.614;2024-03-17T03:05:31;2.60;99.90
52127;DHT22;38120;53.176;6.614;2024-03-17T03:07:57;2.70;99.90
52127;DHT22;38120;53.176;6.614;2024-03-17T03:10:23;3.00;99.90
52127;DHT22;38120;53.176;6.614;2024-03-17T03:12:49;2.90;99.90
52127;DHT22;38120;53.176;6.614;2024-03-17T03:15:15;3.00;99.90
52127;DHT22;38120;53.176;6.614;2024-03-17T03:17:40;3.00;99.90
52127;DHT22;38120;53.176;6.614;2024-03-17T03:20:07;3.10;99.90
52127;DHT22;38120;53.176;6.614;2024-03-17T03:22:35;3.10;99.90
52127;DHT22;38120;53.176;6.614;2024-03-17T03:25:01;3.10;99.90
52127;DHT22;38120;53.176;6.614;2024-03-17T03:27:27;3.20;99.90
52127;DHT22;38120;53.176;6.614;2024-03-17T03:29:53;3.20;99.90
52127;DHT22;38120;53.176;6.614;2024-03-17T03:32:21;3.30;99.90
52127;DHT22;38120;53.176;6.614;2024-03-17T03:34:47;3.30;99.90
52127;DHT22;38120;53.176;6.614;2024-03-17T03:37:13;3.40;99.90
52127;DHT22;38120;53.176;6.614;2024-03-17T03:39:39;3.50;99.90
52127;DHT22;38120;53.176;6.614;2024-03-17T03:42:04;3.60;99.90
52127;DHT22;38120;53.176;6.614;2024-03-17T03:44:30;3.60;99.90
52127;DHT22;38120;53.176;6.614;2024-03-17T03:46:56;3.60;99.90
52127;DHT22;38120;53.176;6.614;2024-03-17T03:49:26;3.70;99.90
52127;DHT22;38120;53.176;6.614;2024-03-17T03:51:52;3.70;99.90
52127;DHT22;38120;53.176;6.614;2024-03-17T03:54:17;3.80;99.90
52127;DHT22;38120;53.176;6.614;2024-03-17T03:56:43;3.80;99.90
52127;DHT22;38120;53.176;6.614;2024-03-17T03:59:09;3.80;99.90
52127;DHT22;38120;53.176;6.614;2024-03-17T04:01:35;5.10;99.90
52127;DHT22;38120;53.176;6.614;2024-03-17T04:04:01;3.80;99.90
52127;DHT22;38120;53.176;6.614;2024-03-17T04:06:29;3.80;99.90
52127;DHT22;38120;53.176;6.614;2024-03-17T04:08:54;3.90;99.90
52127;DHT22;38120;53.176;6.614;2024-03-17T04:11:20;3.90;99.90
52127;DHT22;38120;53.176;6.614;2024-03-17T04:13:45;3.90;99.90
52127;DHT22;38120;53.176;6.614;2024-03-17T04:16:12;3.90;99.90
52127;DHT22;38120;53.176;6.614;2024-03-17T04:18:40;3.90;99.90
52127;DHT22;38120;53.176;6.614;2024-03-17T04:21:06;4.00;99.90
52127;DHT22;38120;53.176;6.614;2024-03-17T04:23:35;4.00;99.90
52127;DHT22;38120;53.176;6.614;2024-03-17T04:26:01;4.20;99.90
52127;DHT22;38120;53.176;6.614;2024-03-17T04:28:28;4.10;99.90
52127;DHT22;38120;53.176;6.614;2024-03-17T04:31:03;4.10;99.90
52127;DHT22;38120;53.176;6.614;2024-03-17T04:33:30;4.10;99.90
52127;DHT22;38120;53.176;6.614;2024-03-17T04:35:56;5.50;99.90
52127;DHT22;38120;53.176;6.614;2024-03-17T04:38:21;4.10;99.90
52127;DHT22;38120;53.176;6.614;2024-03-17T04:40:47;4.20;99.90
52127;DHT22;38120;53.176;6.614;2024-03-17T04:43:13;4.20;99.90
52127;DHT22;38120;53.176;6.614;2024-03-17T04:45:40;4.10;99.90
52127;DHT22;38120;53.176;6.614;2024-03-17T04:48:06;4.20;99.90
52127;DHT22;38120;53.176;6.614;2024-03-17T04:50:32;4.20;99.90
52127;DHT22;38120;53.176;6.614;2024-03-17T04:52:59;4.20;99.90
52127;DHT22;38120;53.176;6.614;2024-03-17T04:55:25;4.20;99.90
52127;DHT22;38120;53.176;6.614;2024-03-17T04:57:51;4.20;99.90
52127;DHT22;38120;53.176;6.614;2024-03-17T05:00:17;4.20;99.90
52127;DHT22;38120;53.176;6.614;2024-03-17T05:02:44;4.20;99.90
52127;DHT22;38120;53.176;6.614;2024-03-17T05:05:09;4.20;99.90
52127;DHT22;38120;53.176;6.614;2024-03-17T05:07:36;4.10;99.90
52127;DHT22;38120;53.176;6.614;2024-03-17T05:10:03;4.20;99.90
52127;DHT22;38120;53.176;6.614;2024-03-17T05:12:28;4.10;99.90
52127;DHT22;38120;53.176;6.614;2024-03-17T05:14:54;4.10;99.90
52127;DHT22;38120;53.176;6.614;2024-03-17T05:17:20;4.30;99.90
52127;DHT22;38120;53.176;6.614;2024-03-17T05:19:45;4.10;99.90
52127;DHT22;38120;53.176;6.614;2024-03-17T05:22:11;4.10;99.90
52127;DHT22;38120;53.176;6.614;2024-03-17T05:24:36;4.10;99.90
52127;DHT22;38120;53.176;6.614;2024-03-17T05:27:02;4.20;99.90
52127;DHT22;38120;53.176;6.614;2024-03-17T05:29:29;4.20;99.90
52127;DHT22;38120;53.176;6.614;2024-03-17T05:31:55;4.20;99.90
52127;DHT22;38120;53.176;6.614;2024-03-17T05:34:21;4.20;99.90
52127;DHT22;38120;53.176;6.614;2024-03-17T05:36:46;4.20;99.90
52127;DHT22;38120;53.176;6.614;2024-03-17T05:39:12;4.20;99.90
52127;DHT22;38120;53.176;6.614;2024-03-17T05:41:39;4.30;99.90
52127;DHT22;38120;53.176;6.614;2024-03-17T05:44:04;4.30;99.90
52127;DHT22;38120;53.176;6.614;2024-03-17T05:46:30;4.30;99.90
52127;DHT22;38120;53.176;6.614;2024-03-17T05:48:56;4.30;99.90
52127;DHT22;38120;53.176;6.614;2024-03-17T05:51:23;4.30;99.90
52127;DHT22;38120;53.176;6.614;2024-03-17T05:53:52;4.30;99.90
52127;DHT22;38120;53.176;6.614;2024-03-17T05:56:18;4.30;99.90
52127;DHT22;38120;53.176;6.614;2024-03-17T05:58:44;4.30;99.90
52127;DHT22;38120;53.176;6.614;2024-03-17T06:01:09;4.30;99.90
52127;DHT22;38120;53.176;6.614;2024-03-17T06:03:37;4.40;99.90
52127;DHT22;38120;53.176;6.614;2024-03-17T06:06:03;4.40;99.90
52127;DHT22;38120;53.176;6.614;2024-03-17T06:08:30;4.30;99.90
52127;DHT22;38120;53.176;6.614;2024-03-17T06:10:56;5.80;99.90
52127;DHT22;38120;53.176;6.614;2024-03-17T06:13:29;5.30;99.90
52127;DHT22;38120;53.176;6.614;2024-03-17T06:15:55;4.50;99.90
52127;DHT22;38120;53.176;6.614;2024-03-17T06:18:26;4.40;99.90
52127;DHT22;38120;53.176;6.614;2024-03-17T06:20:51;4.40;99.90
52127;DHT22;38120;53.176;6.614;2024-03-17T06:23:17;4.40;99.90
52127;DHT22;38120;53.176;6.614;2024-03-17T06:25:47;4.50;99.90
52127;DHT22;38120;53.176;6.614;2024-03-17T06:28:15;4.50;99.90
52127;DHT22;38120;53.176;6.614;2024-03-17T06:30:47;4.60;99.90
52127;DHT22;38120;53.176;6.614;2024-03-17T06:33:19;4.60;99.90
52127;DHT22;38120;53.176;6.614;2024-03-17T06:35:45;4.70;99.90
52127;DHT22;38120;53.176;6.614;2024-03-17T06:38:13;4.70;99.90
52127;DHT22;38120;53.176;6.614;2024-03-17T06:40:39;4.80;99.90
52127;DHT22;38120;53.176;6.614;2024-03-17T06:43:05;4.90;99.90
52127;DHT22;38120;53.176;6.614;2024-03-17T06:45:32;4.90;99.90
52127;DHT22;38120;53.176;6.614;2024-03-17T06:47:58;4.90;99.90
52127;DHT22;38120;53.176;6.614;2024-03-17T06:50:23;5.00;99.90
52127;DHT22;38120;53.176;6.614;2024-03-17T06:52:49;5.00;99.90
52127;DHT22;38120;53.176;6.614;2024-03-17T06:55:15;5.10;99.90
52127;DHT22;38120;53.176;6.614;2024-03-17T06:57:41;5.10;99.90
52127;DHT22;38120;53.176;6.614;2024-03-17T07:00:10;6.00;99.90
52127;DHT22;38120;53.176;6.614;2024-03-17T07:02:43;5.20;99.90
52127;DHT22;38120;53.176;6.614;2024-03-17T07:05:13;5.20;99.90
52127;DHT22;38120;53.176;6.614;2024-03-17T07:07:40;5.30;99.90
52127;DHT22;38120;53.176;6.614;2024-03-17T07:10:06;5.10;99.90
52127;DHT22;38120;53.176;6.614;2024-03-17T07:12:34;5.40;99.90
52127;DHT22;38120;53.176;6.614;2024-03-17T07:14:59;5.40;99.90
52127;DHT22;38120;53.176;6.614;2024-03-17T07:17:25;5.60;99.90
52127;DHT22;38120;53.176;6.614;2024-03-17T07:19:51;5.60;99.90
52127;DHT22;38120;53.176;6.614;2024-03-17T07:22:16;5.80;99.90
52127;DHT22;38120;53.176;6.614;2024-03-17T07:24:43;5.80;99.90
52127;DHT22;38120;53.176;6.614;2024-03-17T07:27:10;5.90;99.90
52127;DHT22;38120;53.176;6.614;2024-03-17T07:29:39;6.00;99.90
52127;DHT22;38120;53.176;6.614;2024-03-17T07:32:05;6.20;99.90
52127;DHT22;38120;53.176;6.614;2024-03-17T07:34:31;6.20;99.90
52127;DHT22;38120;53.176;6.614;2024-03-17T07:36:58;7.20;99.90
52127;DHT22;38120;53.176;6.614;2024-03-17T07:39:31;6.40;99.90
52127;DHT22;38120;53.176;6.614;2024-03-17T07:42:01;6.50;99.90
52127;DHT22;38120;53.176;6.614;2024-03-17T07:44:30;6.90;99.90
52127;DHT22;38120;53.176;6.614;2024-03-17T07:47:03;6.50;99.90
52127;DHT22;38120;53.176;6.614;2024-03-17T07:49:32;6.40;99.90
52127;DHT22;38120;53.176;6.614;2024-03-17T07:52:00;6.50;99.90
52127;DHT22;38120;53.176;6.614;2024-03-17T07:54:28;6.50;99.90
52127;DHT22;38120;53.176;6.614;2024-03-17T07:56:54;6.50;99.90
52127;DHT22;38120;53.176;6.614;2024-03-17T07:59:20;7.70;99.90
52127;DHT22;38120;53.176;6.614;2024-03-17T08:01:46;6.50;99.90
52127;DHT22;38120;53.176;6.614;2024-03-17T08:04:12;6.70;99.90
52127;DHT22;38120;53.176;6.614;2024-03-17T08:06:39;7.00;99.90
52127;DHT22;38120;53.176;6.614;2024-03-17T08:09:06;8.10;99.90
52127;DHT22;38120;53.176;6.614;2024-03-17T08:11:33;6.70;99.90
52127;DHT22;38120;53.176;6.614;2024-03-17T08:13:59;7.80;99.90
52127;DHT22;38120;53.176;6.614;2024-03-17T08:16:27;6.70;99.90
52127;DHT22;38120;53.176;6.614;2024-03-17T08:18:53;6.80;99.90
52127;DHT22;38120;53.176;6.614;2024-03-17T08:21:19;6.80;99.90
52127;DHT22;38120;53.176;6.614;2024-03-17T08:23:45;6.90;99.90
52127;DHT22;38120;53.176;6.614;2024-03-17T08:26:13;6.90;99.90
52127;DHT22;38120;53.176;6.614;2024-03-17T08:28:38;7.00;99.90
52127;DHT22;38120;53.176;6.614;2024-03-17T08:31:05;7.10;99.90
52127;DHT22;38120;53.176;6.614;2024-03-17T08:33:31;7.10;99.90
52127;DHT22;38120;53.176;6.614;2024-03-17T08:36:05;8.20;99.90
52127;DHT22;38120;53.176;6.614;2024-03-17T08:38:33;7.90;99.90
52127;DHT22;38120;53.176;6.614;2024-03-17T08:41:09;8.60;99.90
52127;DHT22;38120;53.176;6.614;2024-03-17T08:43:36;8.40;99.90
52127;DHT22;38120;53.176;6.614;2024-03-17T08:46:03;7.50;99.90
52127;DHT22;38120;53.176;6.614;2024-03-17T08:48:30;7.60;99.90
52127;DHT22;38120;53.176;6.614;2024-03-17T08:50:57;7.60;99.90
52127;DHT22;38120;53.176;6.614;2024-03-17T08:53:23;7.70;99.90
52127;DHT22;38120;53.176;6.614;2024-03-17T08:55:50;7.70;99.90
52127;DHT22;38120;53.176;6.614;2024-03-17T08:58:16;7.80;99.90
52127;DHT22;38120;53.176;6.614;2024-03-17T09:00:43;7.70;99.90
52127;DHT22;38120;53.176;6.614;2024-03-17T09:03:09;7.80;99.90
52127;DHT22;38120;53.176;6.614;2024-03-17T09:05:36;7.90;99.90
52127;DHT22;38120;53.176;6.614;2024-03-17T09:08:02;8.90;99.90
52127;DHT22;38120;53.176;6.614;2024-03-17T09:10:28;8.00;99.90
52127;DHT22;38120;53.176;6.614;2024-03-17T09:12:54;8.10;99.90
52127;DHT22;38120;53.176;6.614;2024-03-17T09:15:20;9.10;99.90
52127;DHT22;38120;53.176;6.614;2024-03-17T09:17:46;8.20;99.90
52127;DHT22;38120;53.176;6.614;2024-03-17T09:20:12;8.20;99.90
52127;DHT22;38120;53.176;6.614;2024-03-17T09:22:40;8.40;99.90
52127;DHT22;38120;53.176;6.614;2024-03-17T09:25:07;9.50;99.90
52127;DHT22;38120;53.176;6.614;2024-03-17T09:27:33;8.60;99.90
52127;DHT22;38120;53.176;6.614;2024-03-17T09:29:59;8.60;99.90
52127;DHT22;38120;53.176;6.614;2024-03-17T09:32:25;8.70;99.90
52127;DHT22;38120;53.176;6.614;2024-03-17T09:34:51;8.80;99.90
52127;DHT22;38120;53.176;6.614;2024-03-17T09:37:17;8.90;99.90
52127;DHT22;38120;53.176;6.614;2024-03-17T09:39:43;9.20;99.90
52127;DHT22;38120;53.176;6.614;2024-03-17T09:42:17;9.00;99.90
52127;DHT22;38120;53.176;6.614;2024-03-17T09:44:46;9.10;99.90
52127;DHT22;38120;53.176;6.614;2024-03-17T09:47:20;9.60;99.90
52127;DHT22;38120;53.176;6.614;2024-03-17T09:49:47;9.10;99.90
52127;DHT22;38120;53.176;6.614;2024-03-17T09:52:20;9.00;99.90
52127;DHT22;38120;53.176;6.614;2024-03-17T09:54:59;9.10;99.90
52127;DHT22;38120;53.176;6.614;2024-03-17T09:57:25;9.10;99.90
52127;DHT22;38120;53.176;6.614;2024-03-17T09:59:54;9.60;99.90
52127;DHT22;38120;53.176;6.614;2024-03-17T10:02:21;9.20;99.90
52127;DHT22;38120;53.176;6.614;2024-03-17T10:04:47;9.50;99.90
52127;DHT22;38120;53.176;6.614;2024-03-17T10:07:13;9.30;99.90
52127;DHT22;38120;53.176;6.614;2024-03-17T10:09:43;9.30;99.90
52127;DHT22;38120;53.176;6.614;2024-03-17T10:12:29;9.30;99.90
52127;DHT22;38120;53.176;6.614;2024-03-17T10:15:01;9.30;99.90
52127;DHT22;38120;53.176;6.614;2024-03-17T10:17:33;9.30;99.90
52127;DHT22;38120;53.176;6.614;2024-03-17T10:20:20;9.30;99.90
52127;DHT22;38120;53.176;6.614;2024-03-17T10:22:59;8.80;99.90
52127;DHT22;38120;53.176;6.614;2024-03-17T10:25:26;9.30;99.90
52127;DHT22;38120;53.176;6.614;2024-03-17T10:27:53;9.40;99.90
52127;DHT22;38120;53.176;6.614;2024-03-17T10:30:20;9.40;99.90
52127;DHT22;38120;53.176;6.614;2024-03-17T10:32:52;9.50;99.90
52127;DHT22;38120;53.176;6.614;2024-03-17T10:35:27;9.50;99.90
52127;DHT22;38120;53.176;6.614;2024-03-17T10:37:54;9.50;99.90
52127;DHT22;38120;53.176;6.614;2024-03-17T10:40:21;9.60;99.90
52127;DHT22;38120;53.176;6.614;2024-03-17T10:42:47;9.50;99.90
52127;DHT22;38120;53.176;6.614;2024-03-17T10:45:14;9.70;99.90
52127;DHT22;38120;53.176;6.614;2024-03-17T10:47:43;9.60;99.90
52127;DHT22;38120;53.176;6.614;2024-03-17T10:50:19;9.60;99.90
52127;DHT22;38120;53.176;6.614;2024-03-17T10:52:49;9.60;99.90
52127;DHT22;38120;53.176;6.614;2024-03-17T10:55:24;9.60;99.90
52127;DHT22;38120;53.176;6.614;2024-03-17T10:57:54;9.80;99.90
52127;DHT22;38120;53.176;6.614;2024-03-17T11:00:24;10.00;99.90
52127;DHT22;38120;53.176;6.614;2024-03-17T11:02:53;9.60;99.90
52127;DHT22;38120;53.176;6.614;2024-03-17T11:05:24;10.60;99.90
52127;DHT22;38120;53.176;6.614;2024-03-17T11:07:55;9.70;99.90
52127;DHT22;38120;53.176;6.614;2024-03-17T11:10:26;9.70;99.90
52127;DHT22;38120;53.176;6.614;2024-03-17T11:12:57;9.80;99.90
52127;DHT22;38120;53.176;6.614;2024-03-17T11:21:06;10.10;99.90
52127;DHT22;38120;53.176;6.614;2024-03-17T11:23:41;10.10;99.90
52127;DHT22;38120;53.176;6.614;2024-03-17T11:26:07;10.30;99.90
52127;DHT22;38120;53.176;6.614;2024-03-17T11:34:05;10.70;99.90
52127;DHT22;38120;53.176;6.614;2024-03-17T11:36:39;10.70;99.90
52127;DHT22;38120;53.176;6.614;2024-03-17T11:39:09;10.70;99.90
52127;DHT22;38120;53.176;6.614;2024-03-17T11:41:49;10.70;99.90
52127;DHT22;38120;53.176;6.614;2024-03-17T11:44:16;11.10;33.80
52127;DHT22;38120;53.176;6.614;2024-03-17T11:47:04;10.90;99.90
52127;DHT22;38120;53.176;6.614;2024-03-17T11:49:38;10.80;1.00
52127;DHT22;38120;53.176;6.614;2024-03-17T11:52:15;10.70;99.90
52127;DHT22;38120;53.176;6.614;2024-03-17T11:54:46;10.70;99.90
52127;DHT22;38120;53.176;6.614;2024-03-17T11:57:24;10.70;92.10
52127;DHT22;38120;53.176;6.614;2024-03-17T11:59:50;10.70;99.90
52127;DHT22;38120;53.176;6.614;2024-03-17T12:04:49;10.60;99.90
52127;DHT22;38120;53.176;6.614;2024-03-17T12:07:16;10.60;93.30
52127;DHT22;38120;53.176;6.614;2024-03-17T12:09:43;11.90;97.40
52127;DHT22;38120;53.176;6.614;2024-03-17T12:12:13;10.70;99.90
52127;DHT22;38120;53.176;6.614;2024-03-17T12:14:40;10.80;1.00
52127;DHT22;38120;53.176;6.614;2024-03-17T12:17:10;10.90;1.00
52127;DHT22;38120;53.176;6.614;2024-03-17T12:19:37;10.90;1.00
52127;DHT22;38120;53.176;6.614;2024-03-17T12:22:08;11.10;1.00
52127;DHT22;38120;53.176;6.614;2024-03-17T12:24:36;11.00;99.90
52127;DHT22;38120;53.176;6.614;2024-03-17T12:27:06;11.00;99.90
52127;DHT22;38120;53.176;6.614;2024-03-17T12:29:36;11.10;1.00
52127;DHT22;38120;53.176;6.614;2024-03-17T12:32:04;11.20;1.00
52127;DHT22;38120;53.176;6.614;2024-03-17T12:34:33;11.10;99.90
52127;DHT22;38120;53.176;6.614;2024-03-17T12:37:00;11.20;99.90
52127;DHT22;38120;53.176;6.614;2024-03-17T12:39:31;11.30;1.00
52127;DHT22;38120;53.176;6.614;2024-03-17T12:42:24;11.40;1.00
52127;DHT22;38120;53.176;6.614;2024-03-17T12:44:52;11.40;1.00
52127;DHT22;38120;53.176;6.614;2024-03-17T12:47:19;12.10;99.90
52127;DHT22;38120;53.176;6.614;2024-03-17T12:52:24;11.30;99.90
52127;DHT22;38120;53.176;6.614;2024-03-17T12:55:06;11.40;1.00
52127;DHT22;38120;53.176;6.614;2024-03-17T13:00:45;11.30;99.90
52127;DHT22;38120;53.176;6.614;2024-03-17T13:03:26;11.20;1.00
52127;DHT22;38120;53.176;6.614;2024-03-17T13:05:52;11.30;1.00
52127;DHT22;38120;53.176;6.614;2024-03-17T13:08:18;11.30;1.00
52127;DHT22;38120;53.176;6.614;2024-03-17T13:10:43;11.30;1.00
52127;DHT22;38120;53.176;6.614;2024-03-17T13:13:10;11.20;99.90
52127;DHT22;38120;53.176;6.614;2024-03-17T13:15:38;11.20;95.00
52127;DHT22;38120;53.176;6.614;2024-03-17T13:18:04;11.30;99.90
52127;DHT22;38120;53.176;6.614;2024-03-17T13:20:33;11.30;99.90
52127;DHT22;38120;53.176;6.614;2024-03-17T13:23:00;11.30;1.00
52127;DHT22;38120;53.176;6.614;2024-03-17T13:25:44;11.30;99.90
52127;DHT22;38120;53.176;6.614;2024-03-17T13:28:11;11.20;58.00
52127;DHT22;38120;53.176;6.614;2024-03-17T13:30:36;11.20;99.90
52127;DHT22;38120;53.176;6.614;2024-03-17T13:33:03;11.30;99.90
52127;DHT22;38120;53.176;6.614;2024-03-17T13:35:39;11.20;96.90
52127;DHT22;38120;53.176;6.614;2024-03-17T13:38:07;11.20;99.90
52127;DHT22;38120;53.176;6.614;2024-03-17T13:40:36;11.20;99.90
52127;DHT22;38120;53.176;6.614;2024-03-17T13:43:03;11.20;99.90
52127;DHT22;38120;53.176;6.614;2024-03-17T13:45:35;11.20;99.90
52127;DHT22;38120;53.176;6.614;2024-03-17T13:48:04;11.30;99.90
52127;DHT22;38120;53.176;6.614;2024-03-17T13:50:31;11.30;1.00
52127;DHT22;38120;53.176;6.614;2024-03-17T13:52:57;11.30;1.00
52127;DHT22;38120;53.176;6.614;2024-03-17T13:55:24;11.30;2.60
52127;DHT22;38120;53.176;6.614;2024-03-17T13:57:53;11.30;99.90
52127;DHT22;38120;53.176;6.614;2024-03-17T14:00:23;11.30;99.90
52127;DHT22;38120;53.176;6.614;2024-03-17T14:02:50;11.40;99.90
52127;DHT22;38120;53.176;6.614;2024-03-17T14:05:18;11.40;1.00
52127;DHT22;38120;53.176;6.614;2024-03-17T14:07:44;11.40;1.00
52127;DHT22;38120;53.176;6.614;2024-03-17T14:10:17;11.40;99.90
52127;DHT22;38120;53.176;6.614;2024-03-17T14:12:43;11.50;99.90
52127;DHT22;38120;53.176;6.614;2024-03-17T14:15:13;11.40;99.90
52127;DHT22;38120;53.176;6.614;2024-03-17T14:17:39;11.40;1.00
52127;DHT22;38120;53.176;6.614;2024-03-17T14:20:07;11.40;1.00
52127;DHT22;38120;53.176;6.614;2024-03-17T14:22:45;11.40;99.90
52127;DHT22;38120;53.176;6.614;2024-03-17T14:25:17;12.30;98.40
52127;DHT22;38120;53.176;6.614;2024-03-17T14:27:44;11.30;1.00
52127;DHT22;38120;53.176;6.614;2024-03-17T14:30:11;11.30;1.00
52127;DHT22;38120;53.176;6.614;2024-03-17T14:32:40;11.30;99.90
52127;DHT22;38120;53.176;6.614;2024-03-17T14:35:05;11.50;60.00
52127;DHT22;38120;53.176;6.614;2024-03-17T14:37:31;11.30;1.00
52127;DHT22;38120;53.176;6.614;2024-03-17T14:39:57;11.20;1.00
52127;DHT22;38120;53.176;6.614;2024-03-17T14:42:24;11.20;1.00
52127;DHT22;38120;53.176;6.614;2024-03-17T14:44:50;11.20;99.90
52127;DHT22;38120;53.176;6.614;2024-03-17T14:47:16;11.20;99.90
52127;DHT22;38120;53.176;6.614;2024-03-17T14:49:42;11.30;99.90
52127;DHT22;38120;53.176;6.614;2024-03-17T14:52:08;11.20;1.00
52127;DHT22;38120;53.176;6.614;2024-03-17T14:54:35;11.10;1.00
52127;DHT22;38120;53.176;6.614;2024-03-17T14:57:01;11.20;1.00
52127;DHT22;38120;53.176;6.614;2024-03-17T14:59:26;11.20;1.00
52127;DHT22;38120;53.176;6.614;2024-03-17T15:01:52;11.20;99.90
52127;DHT22;38120;53.176;6.614;2024-03-17T15:04:18;11.10;99.10
52127;DHT22;38120;53.176;6.614;2024-03-17T15:06:44;11.10;99.90
52127;DHT22;38120;53.176;6.614;2024-03-17T15:09:10;11.10;99.90
52127;DHT22;38120;53.176;6.614;2024-03-17T15:11:35;11.10;1.00
52127;DHT22;38120;53.176;6.614;2024-03-17T15:14:01;11.10;91.60
52127;DHT22;38120;53.176;6.614;2024-03-17T15:16:35;11.10;99.90
52127;DHT22;38120;53.176;6.614;2024-03-17T15:19:01;11.10;99.90
52127;DHT22;38120;53.176;6.614;2024-03-17T15:21:28;11.00;1.00
52127;DHT22;38120;53.176;6.614;2024-03-17T15:23:54;11.60;99.90
52127;DHT22;38120;53.176;6.614;2024-03-17T15:26:20;11.00;99.90
52127;DHT22;38120;53.176;6.614;2024-03-17T15:28:45;11.30;78.30
52127;DHT22;38120;53.176;6.614;2024-03-17T15:31:11;11.00;99.90
52127;DHT22;38120;53.176;6.614;2024-03-17T15:33:38;11.00;99.90
52127;DHT22;38120;53.176;6.614;2024-03-17T15:36:07;11.00;99.90
52127;DHT22;38120;53.176;6.614;2024-03-17T15:38:37;11.00;9.80
52127;DHT22;38120;53.176;6.614;2024-03-17T15:41:07;11.00;99.90
52127;DHT22;38120;53.176;6.614;2024-03-17T15:43:33;11.00;99.90
52127;DHT22;38120;53.176;6.614;2024-03-17T15:46:02;11.00;1.00
52127;DHT22;38120;53.176;6.614;2024-03-17T15:48:28;11.00;54.20
52127;DHT22;38120;53.176;6.614;2024-03-17T15:50:57;11.40;99.90
52127;DHT22;38120;53.176;6.614;2024-03-17T15:53:24;10.90;99.90
52127;DHT22;38120;53.176;6.614;2024-03-17T15:55:59;11.00;1.00
52127;DHT22;38120;53.176;6.614;2024-03-17T15:58:26;10.90;1.00
52127;DHT22;38120;53.176;6.614;2024-03-17T16:00:53;10.90;1.00
52127;DHT22;38120;53.176;6.614;2024-03-17T16:03:19;11.00;99.90
52127;DHT22;38120;53.176;6.614;2024-03-17T16:05:52;10.90;45.20